sensor_id;sensor_type;location;lat;lon;timestamp;P1;durP1;ratioP1;P2;durP2;ratioP2
17947;SDS011;9099;47.958;11.366;2022-10-17T00:00:48;2.20;;;1.88;;
17947;SDS011;9099;47.958;11.366;2022-10-17T00:03:15;2.35;;;1.45;;
17947;SDS011;9099;47.958;11.366;2022-10-17T00:05:42;1.60;;;1.50;;
17947;SDS011;9099;47.958;11.366;2022-10-17T00:08:11;1.70;;;1.60;;
17947;SDS011;9099;47.958;11.366;2022-10-17T00:10:39;2.28;;;1.70;;
17947;SDS011;9099;47.958;11.366;2022-10-17T00:13:07;1.98;;;1.88;;
17947;SDS011;9099;47.958;11.366;2022-10-17T00:15:35;1.73;;;1.63;;
17947;SDS011;9099;47.958;11.366;2022-10-17T00:18:03;1.80;;;1.70;;
17947;SDS011;9099;47.958;11.366;2022-10-17T00:20:29;1.75;;;1.50;;
17947;SDS011;9099;47.958;11.366;2022-10-17T00:22:57;2.60;;;1.70;;
17947;SDS011;9099;47.958;11.366;2022-10-17T00:25:24;2.05;;;1.60;;
17947;SDS011;9099;47.958;11.366;2022-10-17T00:27:51;1.85;;;1.75;;
17947;SDS011;9099;47.958;11.366;2022-10-17T00:30:18;1.45;;;1.35;;
17947;SDS011;9099;47.958;11.366;2022-10-17T00:32:46;1.58;;;1.48;;
17947;SDS011;9099;47.958;11.366;2022-10-17T00:35:13;1.67;;;1.58;;
17947;SDS011;9099;47.958;11.366;2022-10-17T00:37:40;2.78;;;1.40;;
17947;SDS011;9099;47.958;11.366;2022-10-17T00:40:07;1.60;;;1.50;;
17947;SDS011;9099;47.958;11.366;2022-10-17T00:42:35;2.53;;;2.15;;
17947;SDS011;9099;47.958;11.366;2022-10-17T00:45:09;1.55;;;1.40;;
17947;SDS011;9099;47.958;11.366;2022-10-17T00:47:39;1.20;;;1.20;;
17947;SDS011;9099;47.958;11.366;2022-10-17T00:50:09;1.55;;;1.35;;
17947;SDS011;9099;47.958;11.366;2022-10-17T00:52:37;1.67;;;1.30;;
17947;SDS011;9099;47.958;11.366;2022-10-17T00:55:07;1.40;;;1.30;;
17947;SDS011;9099;47.958;11.366;2022-10-17T00:57:37;1.50;;;1.40;;
17947;SDS011;9099;47.958;11.366;2022-10-17T01:00:06;1.35;;;1.35;;
17947;SDS011;9099;47.958;11.366;2022-10-17T01:02:35;1.35;;;1.33;;
17947;SDS011;9099;47.958;11.366;2022-10-17T01:05:02;1.90;;;1.42;;
17947;SDS011;9099;47.958;11.366;2022-10-17T01:07:31;2.20;;;1.40;;
17947;SDS011;9099;47.958;11.366;2022-10-17T01:09:58;2.13;;;1.40;;
17947;SDS011;9099;47.958;11.366;2022-10-17T01:12:27;1.70;;;1.60;;
17947;SDS011;9099;47.958;11.366;2022-10-17T01:15:12;1.17;;;1.17;;
17947;SDS011;9099;47.958;11.366;2022-10-17T01:17:51;1.40;;;1.30;;
17947;SDS011;9099;47.958;11.366;2022-10-17T01:20:35;1.65;;;1.38;;
17947;SDS011;9099;47.958;11.366;2022-10-17T01:27:01;1.70;;;1.60;;
17947;SDS011;9099;47.958;11.366;2022-10-17T01:29:58;1.98;;;1.88;;
17947;SDS011;9099;47.958;11.366;2022-10-17T01:32:37;2.67;;;1.50;;
17947;SDS011;9099;47.958;11.366;2022-10-17T01:35:10;1.60;;;1.50;;
17947;SDS011;9099;47.958;11.366;2022-10-17T01:37:45;1.50;;;1.40;;
17947;SDS011;9099;47.958;11.366;2022-10-17T01:40:19;1.98;;;1.40;;
17947;SDS011;9099;47.958;11.366;2022-10-17T01:42:52;1.48;;;1.38;;
17947;SDS011;9099;47.958;11.366;2022-10-17T01:45:24;2.00;;;1.30;;
17947;SDS011;9099;47.958;11.366;2022-10-17T01:48:00;1.50;;;1.40;;
17947;SDS011;9099;47.958;11.366;2022-10-17T01:50:31;1.58;;;1.20;;
17947;SDS011;9099;47.958;11.366;2022-10-17T01:53:01;2.30;;;1.30;;
17947;SDS011;9099;47.958;11.366;2022-10-17T01:55:33;1.20;;;1.10;;
17947;SDS011;9099;47.958;11.366;2022-10-17T01:58:04;1.38;;;1.27;;
17947;SDS011;9099;47.958;11.366;2022-10-17T02:00:34;1.40;;;1.30;;
17947;SDS011;9099;47.958;11.366;2022-10-17T02:03:06;2.95;;;1.40;;
17947;SDS011;9099;47.958;11.366;2022-10-17T02:05:36;1.00;;;1.00;;
17947;SDS011;9099;47.958;11.366;2022-10-17T02:08:06;1.15;;;1.15;;
17947;SDS011;9099;47.958;11.366;2022-10-17T02:10:35;1.75;;;1.65;;
17947;SDS011;9099;47.958;11.366;2022-10-17T02:13:08;1.45;;;1.25;;
17947;SDS011;9099;47.958;11.366;2022-10-17T02:15:42;1.70;;;1.42;;
17947;SDS011;9099;47.958;11.366;2022-10-17T02:18:26;1.08;;;1.08;;
17947;SDS011;9099;47.958;11.366;2022-10-17T02:21:05;1.63;;;1.30;;
17947;SDS011;9099;47.958;11.366;2022-10-17T02:23:36;1.25;;;1.17;;
17947;SDS011;9099;47.958;11.366;2022-10-17T02:26:14;1.25;;;1.23;;
17947;SDS011;9099;47.958;11.366;2022-10-17T02:28:46;1.98;;;1.45;;
17947;SDS011;9099;47.958;11.366;2022-10-17T02:31:21;1.80;;;1.70;;
17947;SDS011;9099;47.958;11.366;2022-10-17T02:33:53;1.60;;;1.40;;
17947;SDS011;9099;47.958;11.366;2022-10-17T02:36:25;2.42;;;1.27;;
17947;SDS011;9099;47.958;11.366;2022-10-17T02:38:56;1.60;;;1.50;;
17947;SDS011;9099;47.958;11.366;2022-10-17T02:41:26;1.52;;;1.30;;
17947;SDS011;9099;47.958;11.366;2022-10-17T02:43:55;1.63;;;1.52;;
17947;SDS011;9099;47.958;11.366;2022-10-17T02:46:22;1.33;;;1.23;;
17947;SDS011;9099;47.958;11.366;2022-10-17T02:48:54;1.50;;;1.40;;
17947;SDS011;9099;47.958;11.366;2022-10-17T02:51:26;1.15;;;1.15;;
17947;SDS011;9099;47.958;11.366;2022-10-17T02:54:00;1.17;;;1.17;;
17947;SDS011;9099;47.958;11.366;2022-10-17T02:56:35;1.10;;;1.10;;
17947;SDS011;9099;47.958;11.366;2022-10-17T02:59:06;1.40;;;1.30;;
17947;SDS011;9099;47.958;11.366;2022-10-17T03:01:38;1.48;;;1.38;;
17947;SDS011;9099;47.958;11.366;2022-10-17T03:04:08;1.95;;;1.33;;
17947;SDS011;9099;47.958;11.366;2022-10-17T03:06:37;2.05;;;1.45;;
17947;SDS011;9099;47.958;11.366;2022-10-17T03:09:04;1.50;;;1.40;;
17947;SDS011;9099;47.958;11.366;2022-10-17T03:11:31;2.30;;;1.33;;
17947;SDS011;9099;47.958;11.366;2022-10-17T03:13:58;1.95;;;1.50;;
17947;SDS011;9099;47.958;11.366;2022-10-17T03:16:25;2.10;;;1.38;;
17947;SDS011;9099;47.958;11.366;2022-10-17T03:18:52;1.70;;;1.60;;
17947;SDS011;9099;47.958;11.366;2022-10-17T03:21:20;1.20;;;1.20;;
17947;SDS011;9099;47.958;11.366;2022-10-17T03:23:47;1.60;;;1.50;;
17947;SDS011;9099;47.958;11.366;2022-10-17T03:26:14;1.98;;;1.40;;
17947;SDS011;9099;47.958;11.366;2022-10-17T03:28:41;3.47;;;2.15;;
17947;SDS011;9099;47.958;11.366;2022-10-17T03:31:08;2.70;;;1.77;;
17947;SDS011;9099;47.958;11.366;2022-10-17T03:33:38;1.70;;;1.60;;
17947;SDS011;9099;47.958;11.366;2022-10-17T03:36:05;1.80;;;1.70;;
17947;SDS011;9099;47.958;11.366;2022-10-17T03:38:34;1.85;;;1.70;;
17947;SDS011;9099;47.958;11.366;2022-10-17T03:41:01;1.50;;;1.40;;
17947;SDS011;9099;47.958;11.366;2022-10-17T03:43:28;1.80;;;1.45;;
17947;SDS011;9099;47.958;11.366;2022-10-17T03:45:55;2.10;;;1.48;;
17947;SDS011;9099;47.958;11.366;2022-10-17T03:48:23;2.10;;;1.85;;
17947;SDS011;9099;47.958;11.366;2022-10-17T03:50:50;1.77;;;1.60;;
17947;SDS011;9099;47.958;11.366;2022-10-17T03:53:17;2.00;;;1.60;;
17947;SDS011;9099;47.958;11.366;2022-10-17T03:55:45;1.40;;;1.40;;
17947;SDS011;9099;47.958;11.366;2022-10-17T03:58:12;1.75;;;1.65;;
17947;SDS011;9099;47.958;11.366;2022-10-17T04:00:39;2.53;;;2.33;;
17947;SDS011;9099;47.958;11.366;2022-10-17T04:03:05;2.25;;;2.05;;
17947;SDS011;9099;47.958;11.366;2022-10-17T04:05:32;2.30;;;2.20;;
17947;SDS011;9099;47.958;11.366;2022-10-17T04:07:59;2.38;;;1.88;;
17947;SDS011;9099;47.958;11.366;2022-10-17T04:10:26;1.80;;;1.70;;
17947;SDS011;9099;47.958;11.366;2022-10-17T04:12:55;1.90;;;1.80;;
17947;SDS011;9099;47.958;11.366;2022-10-17T04:15:21;1.58;;;1.48;;
17947;SDS011;9099;47.958;11.366;2022-10-17T04:17:48;1.75;;;1.65;;
17947;SDS011;9099;47.958;11.366;2022-10-17T04:20:15;1.88;;;1.77;;
17947;SDS011;9099;47.958;11.366;2022-10-17T04:22:42;1.77;;;1.67;;
17947;SDS011;9099;47.958;11.366;2022-10-17T04:25:09;1.90;;;1.80;;
17947;SDS011;9099;47.958;11.366;2022-10-17T04:27:36;2.85;;;1.75;;
17947;SDS011;9099;47.958;11.366;2022-10-17T04:30:04;1.90;;;1.80;;
17947;SDS011;9099;47.958;11.366;2022-10-17T04:32:34;2.45;;;1.83;;
17947;SDS011;9099;47.958;11.366;2022-10-17T04:35:02;1.92;;;1.83;;
17947;SDS011;9099;47.958;11.366;2022-10-17T04:37:29;2.08;;;1.85;;
17947;SDS011;9099;47.958;11.366;2022-10-17T04:39:56;2.65;;;2.13;;
17947;SDS011;9099;47.958;11.366;2022-10-17T04:42:23;3.15;;;1.90;;
17947;SDS011;9099;47.958;11.366;2022-10-17T04:44:50;1.95;;;1.83;;
17947;SDS011;9099;47.958;11.366;2022-10-17T04:47:18;2.42;;;2.10;;
17947;SDS011;9099;47.958;11.366;2022-10-17T04:49:44;2.20;;;2.00;;
17947;SDS011;9099;47.958;11.366;2022-10-17T04:52:11;3.17;;;2.05;;
17947;SDS011;9099;47.958;11.366;2022-10-17T04:54:38;2.20;;;2.10;;
17947;SDS011;9099;47.958;11.366;2022-10-17T04:57:05;2.60;;;2.40;;
17947;SDS011;9099;47.958;11.366;2022-10-17T04:59:32;3.90;;;2.40;;
17947;SDS011;9099;47.958;11.366;2022-10-17T05:01:58;2.10;;;2.00;;
17947;SDS011;9099;47.958;11.366;2022-10-17T05:04:27;2.45;;;1.92;;
17947;SDS011;9099;47.958;11.366;2022-10-17T05:06:54;2.45;;;2.30;;
17947;SDS011;9099;47.958;11.366;2022-10-17T05:09:20;5.32;;;2.75;;
17947;SDS011;9099;47.958;11.366;2022-10-17T05:11:47;6.18;;;4.20;;
17947;SDS011;9099;47.958;11.366;2022-10-17T05:14:14;5.93;;;5.32;;
17947;SDS011;9099;47.958;11.366;2022-10-17T05:16:41;8.20;;;7.15;;
17947;SDS011;9099;47.958;11.366;2022-10-17T05:19:08;8.95;;;7.35;;
17947;SDS011;9099;47.958;11.366;2022-10-17T05:21:37;7.95;;;6.85;;
17947;SDS011;9099;47.958;11.366;2022-10-17T05:24:05;10.63;;;7.78;;
17947;SDS011;9099;47.958;11.366;2022-10-17T05:26:32;7.97;;;7.25;;
17947;SDS011;9099;47.958;11.366;2022-10-17T05:28:59;8.35;;;7.22;;
17947;SDS011;9099;47.958;11.366;2022-10-17T05:31:27;7.53;;;6.82;;
17947;SDS011;9099;47.958;11.366;2022-10-17T05:33:54;7.18;;;6.20;;
17947;SDS011;9099;47.958;11.366;2022-10-17T05:36:21;8.25;;;6.22;;
17947;SDS011;9099;47.958;11.366;2022-10-17T05:38:50;7.32;;;5.93;;
17947;SDS011;9099;47.958;11.366;2022-10-17T05:41:17;10.52;;;6.20;;
17947;SDS011;9099;47.958;11.366;2022-10-17T05:43:45;5.50;;;5.00;;
17947;SDS011;9099;47.958;11.366;2022-10-17T05:46:12;6.13;;;5.15;;
17947;SDS011;9099;47.958;11.366;2022-10-17T05:48:38;6.13;;;4.70;;
17947;SDS011;9099;47.958;11.366;2022-10-17T05:51:06;4.90;;;4.40;;
17947;SDS011;9099;47.958;11.366;2022-10-17T05:53:35;5.70;;;4.70;;
17947;SDS011;9099;47.958;11.366;2022-10-17T05:56:06;7.28;;;4.57;;
17947;SDS011;9099;47.958;11.366;2022-10-17T05:58:35;7.57;;;4.70;;
17947;SDS011;9099;47.958;11.366;2022-10-17T06:01:05;4.05;;;3.65;;
17947;SDS011;9099;47.958;11.366;2022-10-17T06:03:32;4.82;;;3.45;;
17947;SDS011;9099;47.958;11.366;2022-10-17T06:06:02;4.57;;;3.50;;
17947;SDS011;9099;47.958;11.366;2022-10-17T06:08:29;3.47;;;3.17;;
17947;SDS011;9099;47.958;11.366;2022-10-17T06:10:56;3.17;;;2.97;;
17947;SDS011;9099;47.958;11.366;2022-10-17T06:13:25;3.30;;;2.80;;
17947;SDS011;9099;47.958;11.366;2022-10-17T06:15:52;3.17;;;2.58;;
17947;SDS011;9099;47.958;11.366;2022-10-17T06:18:18;3.50;;;2.42;;
17947;SDS011;9099;47.958;11.366;2022-10-17T06:20:46;4.03;;;2.53;;
17947;SDS011;9099;47.958;11.366;2022-10-17T06:23:12;3.92;;;2.00;;
17947;SDS011;9099;47.958;11.366;2022-10-17T06:25:39;2.38;;;2.20;;
17947;SDS011;9099;47.958;11.366;2022-10-17T06:28:06;2.50;;;1.98;;
17947;SDS011;9099;47.958;11.366;2022-10-17T06:30:37;2.13;;;1.92;;
17947;SDS011;9099;47.958;11.366;2022-10-17T06:33:04;3.30;;;1.92;;
17947;SDS011;9099;47.958;11.366;2022-10-17T06:35:31;1.50;;;1.40;;
17947;SDS011;9099;47.958;11.366;2022-10-17T06:37:58;4.53;;;2.00;;
17947;SDS011;9099;47.958;11.366;2022-10-17T06:40:25;2.10;;;1.73;;
17947;SDS011;9099;47.958;11.366;2022-10-17T06:42:52;1.85;;;1.75;;
17947;SDS011;9099;47.958;11.366;2022-10-17T06:45:19;3.72;;;2.10;;
17947;SDS011;9099;47.958;11.366;2022-10-17T06:47:47;2.28;;;1.83;;
17947;SDS011;9099;47.958;11.366;2022-10-17T06:50:14;3.17;;;2.33;;
17947;SDS011;9099;47.958;11.366;2022-10-17T06:52:41;3.70;;;2.40;;
17947;SDS011;9099;47.958;11.366;2022-10-17T06:55:08;2.22;;;2.00;;
17947;SDS011;9099;47.958;11.366;2022-10-17T06:57:35;2.72;;;2.53;;
17947;SDS011;9099;47.958;11.366;2022-10-17T07:00:02;2.88;;;2.25;;
17947;SDS011;9099;47.958;11.366;2022-10-17T07:02:31;4.63;;;3.10;;
17947;SDS011;9099;47.958;11.366;2022-10-17T07:04:59;3.80;;;2.47;;
17947;SDS011;9099;47.958;11.366;2022-10-17T07:07:25;2.53;;;1.92;;
17947;SDS011;9099;47.958;11.366;2022-10-17T07:09:55;3.70;;;2.13;;
17947;SDS011;9099;47.958;11.366;2022-10-17T07:12:22;3.72;;;2.25;;
17947;SDS011;9099;47.958;11.366;2022-10-17T07:14:49;6.90;;;3.10;;
17947;SDS011;9099;47.958;11.366;2022-10-17T07:17:15;3.83;;;2.10;;
17947;SDS011;9099;47.958;11.366;2022-10-17T07:19:43;5.15;;;2.33;;
17947;SDS011;9099;47.958;11.366;2022-10-17T07:22:11;2.15;;;2.05;;
17947;SDS011;9099;47.958;11.366;2022-10-17T07:24:38;3.90;;;1.83;;
17947;SDS011;9099;47.958;11.366;2022-10-17T07:27:05;2.20;;;2.00;;
17947;SDS011;9099;47.958;11.366;2022-10-17T07:29:32;2.58;;;1.95;;
17947;SDS011;9099;47.958;11.366;2022-10-17T07:31:58;2.83;;;2.17;;
17947;SDS011;9099;47.958;11.366;2022-10-17T07:34:27;2.33;;;2.13;;
17947;SDS011;9099;47.958;11.366;2022-10-17T07:36:55;2.72;;;2.22;;
17947;SDS011;9099;47.958;11.366;2022-10-17T07:39:23;2.67;;;2.15;;
17947;SDS011;9099;47.958;11.366;2022-10-17T07:41:50;2.15;;;1.98;;
17947;SDS011;9099;47.958;11.366;2022-10-17T07:44:17;2.55;;;2.17;;
17947;SDS011;9099;47.958;11.366;2022-10-17T07:46:46;2.20;;;2.10;;
17947;SDS011;9099;47.958;11.366;2022-10-17T07:49:12;2.90;;;2.70;;
17947;SDS011;9099;47.958;11.366;2022-10-17T07:51:39;4.60;;;2.10;;
17947;SDS011;9099;47.958;11.366;2022-10-17T07:54:07;2.40;;;2.20;;
17947;SDS011;9099;47.958;11.366;2022-10-17T07:56:35;2.58;;;2.38;;
17947;SDS011;9099;47.958;11.366;2022-10-17T07:59:02;2.70;;;2.50;;
17947;SDS011;9099;47.958;11.366;2022-10-17T08:01:29;4.15;;;2.30;;
17947;SDS011;9099;47.958;11.366;2022-10-17T08:03:55;3.35;;;2.30;;
17947;SDS011;9099;47.958;11.366;2022-10-17T08:06:22;2.42;;;2.20;;
17947;SDS011;9099;47.958;11.366;2022-10-17T08:08:49;2.30;;;2.20;;
17947;SDS011;9099;47.958;11.366;2022-10-17T08:11:16;2.40;;;2.30;;
17947;SDS011;9099;47.958;11.366;2022-10-17T08:13:44;2.40;;;2.20;;
17947;SDS011;9099;47.958;11.366;2022-10-17T08:16:11;2.30;;;2.10;;
17947;SDS011;9099;47.958;11.366;2022-10-17T08:18:39;4.32;;;2.50;;
17947;SDS011;9099;47.958;11.366;2022-10-17T08:21:06;2.38;;;2.25;;
17947;SDS011;9099;47.958;11.366;2022-10-17T08:23:34;2.35;;;2.25;;
17947;SDS011;9099;47.958;11.366;2022-10-17T08:26:02;3.33;;;2.30;;
17947;SDS011;9099;47.958;11.366;2022-10-17T08:28:33;3.45;;;2.13;;
17947;SDS011;9099;47.958;11.366;2022-10-17T08:31:03;2.40;;;2.20;;
17947;SDS011;9099;47.958;11.366;2022-10-17T08:33:30;2.97;;;2.60;;
17947;SDS011;9099;47.958;11.366;2022-10-17T08:35:57;3.95;;;2.63;;
17947;SDS011;9099;47.958;11.366;2022-10-17T08:38:24;2.35;;;2.10;;
17947;SDS011;9099;47.958;11.366;2022-10-17T08:40:51;2.58;;;2.38;;
17947;SDS011;9099;47.958;11.366;2022-10-17T08:43:25;2.25;;;2.08;;
17947;SDS011;9099;47.958;11.366;2022-10-17T08:45:59;2.40;;;2.20;;
17947;SDS011;9099;47.958;11.366;2022-10-17T08:48:30;3.88;;;2.72;;
17947;SDS011;9099;47.958;11.366;2022-10-17T08:51:00;2.63;;;2.20;;
17947;SDS011;9099;47.958;11.366;2022-10-17T08:53:31;2.50;;;2.30;;
17947;SDS011;9099;47.958;11.366;2022-10-17T08:56:02;2.95;;;2.47;;
17947;SDS011;9099;47.958;11.366;2022-10-17T08:58:36;2.42;;;2.20;;
17947;SDS011;9099;47.958;11.366;2022-10-17T09:01:04;2.60;;;2.40;;
17947;SDS011;9099;47.958;11.366;2022-10-17T09:03:42;5.18;;;2.33;;
17947;SDS011;9099;47.958;11.366;2022-10-17T09:06:18;3.33;;;2.42;;
17947;SDS011;9099;47.958;11.366;2022-10-17T09:08:52;2.50;;;2.40;;
17947;SDS011;9099;47.958;11.366;2022-10-17T09:11:29;2.35;;;2.15;;
17947;SDS011;9099;47.958;11.366;2022-10-17T09:14:08;3.80;;;2.67;;
17947;SDS011;9099;47.958;11.366;2022-10-17T09:16:49;2.20;;;2.10;;
17947;SDS011;9099;47.958;11.366;2022-10-17T09:19:31;2.13;;;2.03;;
17947;SDS011;9099;47.958;11.366;2022-10-17T09:22:02;2.40;;;1.90;;
17947;SDS011;9099;47.958;11.366;2022-10-17T09:24:35;2.20;;;2.10;;
17947;SDS011;9099;47.958;11.366;2022-10-17T09:27:08;2.45;;;1.95;;
17947;SDS011;9099;47.958;11.366;2022-10-17T09:29:43;1.90;;;1.80;;
17947;SDS011;9099;47.958;11.366;2022-10-17T09:32:14;2.28;;;1.92;;
17947;SDS011;9099;47.958;11.366;2022-10-17T09:34:46;3.45;;;2.20;;
17947;SDS011;9099;47.958;11.366;2022-10-17T09:37:13;2.65;;;2.08;;
17947;SDS011;9099;47.958;11.366;2022-10-17T09:39:42;1.90;;;1.80;;
17947;SDS011;9099;47.958;11.366;2022-10-17T09:42:11;2.10;;;1.92;;
17947;SDS011;9099;47.958;11.366;2022-10-17T09:44:41;2.08;;;1.98;;
17947;SDS011;9099;47.958;11.366;2022-10-17T09:47:23;2.10;;;1.85;;
17947;SDS011;9099;47.958;11.366;2022-10-17T09:49:56;2.22;;;2.05;;
17947;SDS011;9099;47.958;11.366;2022-10-17T09:52:24;2.45;;;2.28;;
17947;SDS011;9099;47.958;11.366;2022-10-17T09:54:55;2.42;;;2.25;;
17947;SDS011;9099;47.958;11.366;2022-10-17T09:57:25;2.05;;;1.95;;
17947;SDS011;9099;47.958;11.366;2022-10-17T09:59:56;2.00;;;1.90;;
17947;SDS011;9099;47.958;11.366;2022-10-17T10:02:25;1.90;;;1.80;;
17947;SDS011;9099;47.958;11.366;2022-10-17T10:04:59;2.00;;;1.90;;
17947;SDS011;9099;47.958;11.366;2022-10-17T10:07:29;1.98;;;1.88;;
17947;SDS011;9099;47.958;11.366;2022-10-17T10:09:57;1.92;;;1.83;;
17947;SDS011;9099;47.958;11.366;2022-10-17T10:12:26;2.38;;;2.05;;
17947;SDS011;9099;47.958;11.366;2022-10-17T10:14:55;3.30;;;2.13;;
17947;SDS011;9099;47.958;11.366;2022-10-17T10:17:33;2.22;;;1.80;;
17947;SDS011;9099;47.958;11.366;2022-10-17T10:20:23;2.20;;;1.83;;
17947;SDS011;9099;47.958;11.366;2022-10-17T10:25:48;2.00;;;1.83;;
17947;SDS011;9099;47.958;11.366;2022-10-17T10:28:20;2.00;;;1.90;;
17947;SDS011;9099;47.958;11.366;2022-10-17T10:30:50;2.10;;;2.00;;
17947;SDS011;9099;47.958;11.366;2022-10-17T10:33:18;1.77;;;1.65;;
17947;SDS011;9099;47.958;11.366;2022-10-17T10:35:52;1.63;;;1.60;;
17947;SDS011;9099;47.958;11.366;2022-10-17T10:38:21;2.28;;;2.00;;
17947;SDS011;9099;47.958;11.366;2022-10-17T10:40:49;1.48;;;1.48;;
17947;SDS011;9099;47.958;11.366;2022-10-17T10:43:22;1.83;;;1.63;;
17947;SDS011;9099;47.958;11.366;2022-10-17T10:45:52;2.28;;;1.88;;
17947;SDS011;9099;47.958;11.366;2022-10-17T10:48:20;2.63;;;1.58;;
17947;SDS011;9099;47.958;11.366;2022-10-17T10:50:49;1.80;;;1.63;;
17947;SDS011;9099;47.958;11.366;2022-10-17T10:53:24;3.30;;;1.67;;
17947;SDS011;9099;47.958;11.366;2022-10-17T10:55:58;2.00;;;1.90;;
17947;SDS011;9099;47.958;11.366;2022-10-17T10:58:31;1.65;;;1.52;;
17947;SDS011;9099;47.958;11.366;2022-10-17T11:01:05;2.08;;;1.80;;
17947;SDS011;9099;47.958;11.366;2022-10-17T11:03:40;1.77;;;1.65;;
17947;SDS011;9099;47.958;11.366;2022-10-17T11:06:15;1.70;;;1.60;;
17947;SDS011;9099;47.958;11.366;2022-10-17T11:08:49;2.00;;;1.90;;
17947;SDS011;9099;47.958;11.366;2022-10-17T11:11:23;2.08;;;1.92;;
17947;SDS011;9099;47.958;11.366;2022-10-17T11:13:57;1.80;;;1.70;;
17947;SDS011;9099;47.958;11.366;2022-10-17T11:16:28;2.45;;;1.80;;
17947;SDS011;9099;47.958;11.366;2022-10-17T11:19:02;1.95;;;1.80;;
17947;SDS011;9099;47.958;11.366;2022-10-17T11:21:40;1.70;;;1.60;;
17947;SDS011;9099;47.958;11.366;2022-10-17T11:24:15;1.80;;;1.70;;
17947;SDS011;9099;47.958;11.366;2022-10-17T11:26:48;2.38;;;1.92;;
17947;SDS011;9099;47.958;11.366;2022-10-17T11:29:26;1.75;;;1.65;;
17947;SDS011;9099;47.958;11.366;2022-10-17T11:31:56;1.70;;;1.60;;
17947;SDS011;9099;47.958;11.366;2022-10-17T11:34:28;1.40;;;1.40;;
17947;SDS011;9099;47.958;11.366;2022-10-17T11:36:58;2.00;;;1.83;;
17947;SDS011;9099;47.958;11.366;2022-10-17T11:39:33;2.15;;;1.90;;
17947;SDS011;9099;47.958;11.366;2022-10-17T11:42:06;1.38;;;1.30;;
17947;SDS011;9099;47.958;11.366;2022-10-17T11:44:38;2.00;;;1.50;;
17947;SDS011;9099;47.958;11.366;2022-10-17T11:47:06;1.90;;;1.80;;
17947;SDS011;9099;47.958;11.366;2022-10-17T11:49:46;1.65;;;1.55;;
17947;SDS011;9099;47.958;11.366;2022-10-17T11:52:19;1.90;;;1.67;;
17947;SDS011;9099;47.958;11.366;2022-10-17T11:54:55;1.75;;;1.65;;
17947;SDS011;9099;47.958;11.366;2022-10-17T11:57:34;1.95;;;1.60;;
17947;SDS011;9099;47.958;11.366;2022-10-17T12:00:17;1.88;;;1.45;;
17947;SDS011;9099;47.958;11.366;2022-10-17T12:02:51;1.67;;;1.58;;
17947;SDS011;9099;47.958;11.366;2022-10-17T12:05:26;1.60;;;1.50;;
17947;SDS011;9099;47.958;11.366;2022-10-17T12:07:59;1.95;;;1.40;;
17947;SDS011;9099;47.958;11.366;2022-10-17T12:10:34;1.33;;;1.33;;
17947;SDS011;9099;47.958;11.366;2022-10-17T12:19:13;1.60;;;1.52;;
17947;SDS011;9099;47.958;11.366;2022-10-17T12:22:16;1.50;;;1.50;;
17947;SDS011;9099;47.958;11.366;2022-10-17T12:24:53;1.83;;;1.73;;
17947;SDS011;9099;47.958;11.366;2022-10-17T12:27:33;1.65;;;1.58;;
17947;SDS011;9099;47.958;11.366;2022-10-17T12:30:04;1.48;;;1.40;;
17947;SDS011;9099;47.958;11.366;2022-10-17T12:32:32;3.17;;;1.50;;
17947;SDS011;9099;47.958;11.366;2022-10-17T12:34:59;2.88;;;1.80;;
17947;SDS011;9099;47.958;11.366;2022-10-17T12:40:49;1.85;;;1.75;;
17947;SDS011;9099;47.958;11.366;2022-10-17T12:55:11;1.70;;;1.60;;
17947;SDS011;9099;47.958;11.366;2022-10-17T12:57:40;2.05;;;1.85;;
17947;SDS011;9099;47.958;11.366;2022-10-17T13:00:15;2.10;;;1.90;;
17947;SDS011;9099;47.958;11.366;2022-10-17T13:02:45;1.70;;;1.60;;
17947;SDS011;9099;47.958;11.366;2022-10-17T13:05:14;2.80;;;1.65;;
17947;SDS011;9099;47.958;11.366;2022-10-17T13:07:44;1.58;;;1.38;;
17947;SDS011;9099;47.958;11.366;2022-10-17T13:10:21;1.60;;;1.50;;
17947;SDS011;9099;47.958;11.366;2022-10-17T13:12:50;2.10;;;1.67;;
17947;SDS011;9099;47.958;11.366;2022-10-17T13:15:23;1.65;;;1.55;;
17947;SDS011;9099;47.958;11.366;2022-10-17T13:17:56;1.27;;;1.27;;
17947;SDS011;9099;47.958;11.366;2022-10-17T13:20:25;2.28;;;1.50;;
17947;SDS011;9099;47.958;11.366;2022-10-17T13:22:54;1.70;;;1.60;;
17947;SDS011;9099;47.958;11.366;2022-10-17T13:25:22;1.70;;;1.50;;
17947;SDS011;9099;47.958;11.366;2022-10-17T13:27:50;1.33;;;1.33;;
17947;SDS011;9099;47.958;11.366;2022-10-17T13:30:30;1.40;;;1.40;;
17947;SDS011;9099;47.958;11.366;2022-10-17T13:32:59;1.40;;;1.30;;
17947;SDS011;9099;47.958;11.366;2022-10-17T13:35:26;2.45;;;1.70;;
17947;SDS011;9099;47.958;11.366;2022-10-17T13:37:55;1.80;;;1.70;;
17947;SDS011;9099;47.958;11.366;2022-10-17T13:40:24;1.60;;;1.50;;
17947;SDS011;9099;47.958;11.366;2022-10-17T13:42:54;2.50;;;1.58;;
17947;SDS011;9099;47.958;11.366;2022-10-17T13:45:25;1.17;;;1.17;;
17947;SDS011;9099;47.958;11.366;2022-10-17T13:47:57;2.15;;;1.67;;
17947;SDS011;9099;47.958;11.366;2022-10-17T13:50:30;1.70;;;1.60;;
17947;SDS011;9099;47.958;11.366;2022-10-17T13:53:06;1.50;;;1.40;;
17947;SDS011;9099;47.958;11.366;2022-10-17T13:55:35;1.23;;;1.13;;
17947;SDS011;9099;47.958;11.366;2022-10-17T13:58:09;1.70;;;1.60;;
17947;SDS011;9099;47.958;11.366;2022-10-17T14:00:40;1.30;;;1.30;;
17947;SDS011;9099;47.958;11.366;2022-10-17T14:03:08;2.15;;;1.40;;
17947;SDS011;9099;47.958;11.366;2022-10-17T14:05:35;1.50;;;1.42;;
17947;SDS011;9099;47.958;11.366;2022-10-17T14:08:45;1.65;;;1.55;;
17947;SDS011;9099;47.958;11.366;2022-10-17T14:11:21;1.80;;;1.50;;
17947;SDS011;9099;47.958;11.366;2022-10-17T14:13:51;1.60;;;1.50;;
17947;SDS011;9099;47.958;11.366;2022-10-17T14:16:20;11.02;;;2.10;;
17947;SDS011;9099;47.958;11.366;2022-10-17T14:18:49;1.60;;;1.50;;
17947;SDS011;9099;47.958;11.366;2022-10-17T14:21:18;1.63;;;1.40;;
17947;SDS011;9099;47.958;11.366;2022-10-17T14:23:46;1.65;;;1.55;;
17947;SDS011;9099;47.958;11.366;2022-10-17T14:26:16;1.63;;;1.52;;
17947;SDS011;9099;47.958;11.366;2022-10-17T14:28:45;2.33;;;2.17;;
17947;SDS011;9099;47.958;11.366;2022-10-17T14:31:19;1.65;;;1.55;;
17947;SDS011;9099;47.958;11.366;2022-10-17T14:34:05;1.50;;;1.40;;
17947;SDS011;9099;47.958;11.366;2022-10-17T14:36:33;1.40;;;1.30;;
17947;SDS011;9099;47.958;11.366;2022-10-17T14:39:02;3.35;;;1.85;;
17947;SDS011;9099;47.958;11.366;2022-10-17T14:41:32;2.05;;;1.95;;
17947;SDS011;9099;47.958;11.366;2022-10-17T14:44:01;2.55;;;2.35;;
17947;SDS011;9099;47.958;11.366;2022-10-17T14:46:30;1.90;;;1.80;;
17947;SDS011;9099;47.958;11.366;2022-10-17T14:49:02;4.43;;;2.00;;
17947;SDS011;9099;47.958;11.366;2022-10-17T14:51:32;1.70;;;1.60;;
17947;SDS011;9099;47.958;11.366;2022-10-17T14:54:00;2.88;;;1.75;;
17947;SDS011;9099;47.958;11.366;2022-10-17T14:56:33;1.83;;;1.60;;
17947;SDS011;9099;47.958;11.366;2022-10-17T14:59:04;2.17;;;1.40;;
17947;SDS011;9099;47.958;11.366;2022-10-17T15:01:32;3.17;;;1.63;;
17947;SDS011;9099;47.958;11.366;2022-10-17T15:03:59;1.60;;;1.50;;
17947;SDS011;9099;47.958;11.366;2022-10-17T15:06:27;2.53;;;1.90;;
17947;SDS011;9099;47.958;11.366;2022-10-17T15:08:56;2.03;;;1.80;;
17947;SDS011;9099;47.958;11.366;2022-10-17T15:11:23;1.67;;;1.58;;
17947;SDS011;9099;47.958;11.366;2022-10-17T15:13:50;4.15;;;1.65;;
17947;SDS011;9099;47.958;11.366;2022-10-17T15:16:18;1.60;;;1.50;;
17947;SDS011;9099;47.958;11.366;2022-10-17T15:18:46;1.70;;;1.60;;
17947;SDS011;9099;47.958;11.366;2022-10-17T15:21:14;2.35;;;2.25;;
17947;SDS011;9099;47.958;11.366;2022-10-17T15:23:42;1.98;;;1.88;;
17947;SDS011;9099;47.958;11.366;2022-10-17T15:26:14;2.03;;;1.80;;
17947;SDS011;9099;47.958;11.366;2022-10-17T15:28:42;2.05;;;1.90;;
17947;SDS011;9099;47.958;11.366;2022-10-17T15:31:10;1.92;;;1.83;;
17947;SDS011;9099;47.958;11.366;2022-10-17T15:33:37;3.08;;;2.40;;